sensor_id;sensor_type;location;lat;lon;timestamp;P1;durP1;ratioP1;P2;durP2;ratioP2
79137;SDS011;68544;45.566;10.238;2023-04-15T00:01:19;4.13;;;2.50;;
79137;SDS011;68544;45.566;10.238;2023-04-15T00:03:45;5.10;;;2.10;;
79137;SDS011;68544;45.566;10.238;2023-04-15T00:06:11;4.47;;;2.42;;
79137;SDS011;68544;45.566;10.238;2023-04-15T00:08:37;4.15;;;2.15;;
79137;SDS011;68544;45.566;10.238;2023-04-15T00:11:03;4.97;;;2.37;;
79137;SDS011;68544;45.566;10.238;2023-04-15T00:13:29;3.78;;;2.30;;
79137;SDS011;68544;45.566;10.238;2023-04-15T00:15:56;3.75;;;2.47;;
79137;SDS011;68544;45.566;10.238;2023-04-15T00:18:22;4.60;;;2.43;;
79137;SDS011;68544;45.566;10.238;2023-04-15T00:23:13;3.87;;;2.20;;
79137;SDS011;68544;45.566;10.238;2023-04-15T00:25:39;6.03;;;2.77;;
79137;SDS011;68544;45.566;10.238;2023-04-15T00:28:04;6.70;;;2.80;;
79137;SDS011;68544;45.566;10.238;2023-04-15T00:30:29;7.13;;;2.50;;
79137;SDS011;68544;45.566;10.238;2023-04-15T00:32:55;5.97;;;2.10;;
79137;SDS011;68544;45.566;10.238;2023-04-15T00:35:20;4.03;;;2.40;;
79137;SDS011;68544;45.566;10.238;2023-04-15T00:37:46;4.77;;;2.40;;
79137;SDS011;68544;45.566;10.238;2023-04-15T00:40:11;3.77;;;2.30;;
79137;SDS011;68544;45.566;10.238;2023-04-15T00:42:37;3.40;;;2.08;;
79137;SDS011;68544;45.566;10.238;2023-04-15T00:45:03;3.50;;;1.90;;
79137;SDS011;68544;45.566;10.238;2023-04-15T00:47:29;5.00;;;2.45;;
79137;SDS011;68544;45.566;10.238;2023-04-15T00:49:57;3.58;;;2.30;;
79137;SDS011;68544;45.566;10.238;2023-04-15T00:52:23;4.97;;;2.33;;
79137;SDS011;68544;45.566;10.238;2023-04-15T00:54:48;4.83;;;2.67;;
79137;SDS011;68544;45.566;10.238;2023-04-15T00:57:15;4.45;;;2.33;;
79137;SDS011;68544;45.566;10.238;2023-04-15T00:59:40;4.47;;;2.60;;
79137;SDS011;68544;45.566;10.238;2023-04-15T01:02:06;5.33;;;2.47;;
79137;SDS011;68544;45.566;10.238;2023-04-15T01:04:32;5.35;;;2.40;;
79137;SDS011;68544;45.566;10.238;2023-04-15T01:06:57;4.93;;;2.50;;
79137;SDS011;68544;45.566;10.238;2023-04-15T01:09:22;4.30;;;2.00;;
79137;SDS011;68544;45.566;10.238;2023-04-15T01:11:48;3.30;;;1.90;;
79137;SDS011;68544;45.566;10.238;2023-04-15T01:14:13;5.45;;;2.63;;
79137;SDS011;68544;45.566;10.238;2023-04-15T01:16:39;7.67;;;2.27;;
79137;SDS011;68544;45.566;10.238;2023-04-15T01:19:08;6.10;;;2.15;;
79137;SDS011;68544;45.566;10.238;2023-04-15T01:21:37;4.55;;;1.90;;
79137;SDS011;68544;45.566;10.238;2023-04-15T01:24:05;3.63;;;1.88;;
79137;SDS011;68544;45.566;10.238;2023-04-15T01:26:33;5.05;;;2.13;;
79137;SDS011;68544;45.566;10.238;2023-04-15T01:29:03;4.63;;;1.80;;
79137;SDS011;68544;45.566;10.238;2023-04-15T01:31:28;4.40;;;1.80;;
79137;SDS011;68544;45.566;10.238;2023-04-15T01:33:53;4.03;;;2.13;;
79137;SDS011;68544;45.566;10.238;2023-04-15T01:36:19;4.90;;;1.93;;
79137;SDS011;68544;45.566;10.238;2023-04-15T01:38:44;4.37;;;1.90;;
79137;SDS011;68544;45.566;10.238;2023-04-15T01:41:10;8.73;;;1.90;;
79137;SDS011;68544;45.566;10.238;2023-04-15T01:43:35;3.87;;;1.97;;
79137;SDS011;68544;45.566;10.238;2023-04-15T01:46:04;4.63;;;2.00;;
79137;SDS011;68544;45.566;10.238;2023-04-15T01:48:30;2.75;;;1.60;;
79137;SDS011;68544;45.566;10.238;2023-04-15T01:50:56;3.88;;;2.00;;
79137;SDS011;68544;45.566;10.238;2023-04-15T01:53:23;3.75;;;1.65;;
79137;SDS011;68544;45.566;10.238;2023-04-15T01:55:49;4.95;;;1.67;;
79137;SDS011;68544;45.566;10.238;2023-04-15T01:58:15;3.67;;;2.17;;
79137;SDS011;68544;45.566;10.238;2023-04-15T02:00:41;2.63;;;1.52;;
79137;SDS011;68544;45.566;10.238;2023-04-15T02:03:06;3.03;;;1.40;;
79137;SDS011;68544;45.566;10.238;2023-04-15T02:05:32;2.50;;;1.80;;
79137;SDS011;68544;45.566;10.238;2023-04-15T02:07:57;2.95;;;1.77;;
79137;SDS011;68544;45.566;10.238;2023-04-15T02:10:23;5.03;;;1.77;;
79137;SDS011;68544;45.566;10.238;2023-04-15T02:12:48;3.37;;;1.83;;
79137;SDS011;68544;45.566;10.238;2023-04-15T02:15:14;3.17;;;1.67;;
79137;SDS011;68544;45.566;10.238;2023-04-15T02:17:39;3.17;;;1.97;;
79137;SDS011;68544;45.566;10.238;2023-04-15T02:20:05;3.33;;;1.60;;
79137;SDS011;68544;45.566;10.238;2023-04-15T02:22:31;3.33;;;1.90;;
79137;SDS011;68544;45.566;10.238;2023-04-15T02:24:56;3.77;;;1.70;;
79137;SDS011;68544;45.566;10.238;2023-04-15T02:27:21;3.10;;;1.70;;
79137;SDS011;68544;45.566;10.238;2023-04-15T02:29:47;3.07;;;1.90;;
79137;SDS011;68544;45.566;10.238;2023-04-15T02:32:15;5.72;;;2.10;;
79137;SDS011;68544;45.566;10.238;2023-04-15T02:34:40;3.03;;;1.70;;
79137;SDS011;68544;45.566;10.238;2023-04-15T02:39:35;3.10;;;1.60;;
79137;SDS011;68544;45.566;10.238;2023-04-15T02:42:00;3.27;;;1.70;;
79137;SDS011;68544;45.566;10.238;2023-04-15T02:44:26;2.63;;;1.45;;
79137;SDS011;68544;45.566;10.238;2023-04-15T02:46:52;5.18;;;1.60;;
79137;SDS011;68544;45.566;10.238;2023-04-15T02:49:21;3.40;;;1.50;;
79137;SDS011;68544;45.566;10.238;2023-04-15T02:51:47;2.00;;;1.10;;
79137;SDS011;68544;45.566;10.238;2023-04-15T02:56:42;2.15;;;1.40;;
79137;SDS011;68544;45.566;10.238;2023-04-15T02:59:07;2.87;;;1.60;;
79137;SDS011;68544;45.566;10.238;2023-04-15T03:01:32;2.73;;;1.60;;
79137;SDS011;68544;45.566;10.238;2023-04-15T03:03:58;2.77;;;1.67;;
79137;SDS011;68544;45.566;10.238;2023-04-15T03:06:23;2.60;;;1.30;;
79137;SDS011;68544;45.566;10.238;2023-04-15T03:08:49;3.73;;;1.87;;
79137;SDS011;68544;45.566;10.238;2023-04-15T03:11:14;2.10;;;1.23;;
79137;SDS011;68544;45.566;10.238;2023-04-15T03:13:40;3.47;;;1.48;;
79137;SDS011;68544;45.566;10.238;2023-04-15T03:16:10;4.45;;;1.45;;
79137;SDS011;68544;45.566;10.238;2023-04-15T03:18:35;2.72;;;1.60;;
79137;SDS011;68544;45.566;10.238;2023-04-15T03:21:01;3.30;;;1.80;;
79137;SDS011;68544;45.566;10.238;2023-04-15T03:23:26;3.15;;;1.42;;
79137;SDS011;68544;45.566;10.238;2023-04-15T03:25:52;4.00;;;1.30;;
79137;SDS011;68544;45.566;10.238;2023-04-15T03:28:19;1.92;;;1.15;;
79137;SDS011;68544;45.566;10.238;2023-04-15T03:30:45;2.23;;;1.40;;
79137;SDS011;68544;45.566;10.238;2023-04-15T03:33:10;2.70;;;1.33;;
79137;SDS011;68544;45.566;10.238;2023-04-15T03:35:35;3.40;;;1.30;;
79137;SDS011;68544;45.566;10.238;2023-04-15T03:38:01;3.78;;;1.20;;
79137;SDS011;68544;45.566;10.238;2023-04-15T03:40:27;3.30;;;1.33;;
79137;SDS011;68544;45.566;10.238;2023-04-15T03:42:52;2.27;;;1.17;;
79137;SDS011;68544;45.566;10.238;2023-04-15T03:45:17;2.03;;;1.13;;
79137;SDS011;68544;45.566;10.238;2023-04-15T03:47:43;1.97;;;1.30;;
79137;SDS011;68544;45.566;10.238;2023-04-15T03:50:08;2.37;;;1.33;;
79137;SDS011;68544;45.566;10.238;2023-04-15T03:52:34;3.03;;;1.42;;
79137;SDS011;68544;45.566;10.238;2023-04-15T03:54:59;2.07;;;1.10;;
79137;SDS011;68544;45.566;10.238;2023-04-15T03:57:24;2.23;;;1.17;;
79137;SDS011;68544;45.566;10.238;2023-04-15T03:59:50;3.63;;;1.10;;
79137;SDS011;68544;45.566;10.238;2023-04-15T04:02:15;2.17;;;1.23;;
79137;SDS011;68544;45.566;10.238;2023-04-15T04:04:41;1.97;;;1.13;;
79137;SDS011;68544;45.566;10.238;2023-04-15T04:07:07;1.75;;;0.93;;
79137;SDS011;68544;45.566;10.238;2023-04-15T04:09:32;1.80;;;1.20;;
79137;SDS011;68544;45.566;10.238;2023-04-15T04:11:58;2.03;;;1.10;;
79137;SDS011;68544;45.566;10.238;2023-04-15T04:14:23;3.07;;;1.27;;
79137;SDS011;68544;45.566;10.238;2023-04-15T04:16:53;2.60;;;1.08;;
79137;SDS011;68544;45.566;10.238;2023-04-15T04:19:18;1.10;;;0.80;;
79137;SDS011;68544;45.566;10.238;2023-04-15T04:21:44;4.67;;;1.07;;
79137;SDS011;68544;45.566;10.238;2023-04-15T04:24:09;3.23;;;1.20;;
79137;SDS011;68544;45.566;10.238;2023-04-15T04:26:35;2.25;;;1.10;;
79137;SDS011;68544;45.566;10.238;2023-04-15T04:29:01;2.17;;;1.37;;
79137;SDS011;68544;45.566;10.238;2023-04-15T04:31:26;2.20;;;1.13;;
79137;SDS011;68544;45.566;10.238;2023-04-15T04:33:52;3.15;;;1.10;;
79137;SDS011;68544;45.566;10.238;2023-04-15T04:36:17;2.57;;;1.17;;
79137;SDS011;68544;45.566;10.238;2023-04-15T04:38:42;2.03;;;1.00;;
79137;SDS011;68544;45.566;10.238;2023-04-15T04:41:08;2.67;;;1.53;;
79137;SDS011;68544;45.566;10.238;2023-04-15T04:43:33;2.03;;;1.20;;
79137;SDS011;68544;45.566;10.238;2023-04-15T04:45:58;2.10;;;1.17;;
79137;SDS011;68544;45.566;10.238;2023-04-15T04:48:23;5.90;;;1.50;;
79137;SDS011;68544;45.566;10.238;2023-04-15T04:50:49;2.17;;;1.25;;
79137;SDS011;68544;45.566;10.238;2023-04-15T04:53:15;4.93;;;1.40;;
79137;SDS011;68544;45.566;10.238;2023-04-15T04:55:42;5.70;;;1.60;;
79137;SDS011;68544;45.566;10.238;2023-04-15T04:58:07;2.20;;;1.30;;
79137;SDS011;68544;45.566;10.238;2023-04-15T05:00:32;3.43;;;1.57;;
79137;SDS011;68544;45.566;10.238;2023-04-15T05:02:58;4.03;;;1.70;;
79137;SDS011;68544;45.566;10.238;2023-04-15T05:05:23;3.17;;;1.40;;
79137;SDS011;68544;45.566;10.238;2023-04-15T05:07:49;3.80;;;1.93;;
79137;SDS011;68544;45.566;10.238;2023-04-15T05:10:14;4.67;;;1.60;;
79137;SDS011;68544;45.566;10.238;2023-04-15T05:12:41;2.85;;;1.50;;
79137;SDS011;68544;45.566;10.238;2023-04-15T05:15:07;2.90;;;1.77;;
79137;SDS011;68544;45.566;10.238;2023-04-15T05:17:32;3.10;;;1.70;;
79137;SDS011;68544;45.566;10.238;2023-04-15T05:19:59;2.63;;;1.65;;
79137;SDS011;68544;45.566;10.238;2023-04-15T05:22:24;3.22;;;1.63;;
79137;SDS011;68544;45.566;10.238;2023-04-15T05:24:50;3.53;;;1.60;;
79137;SDS011;68544;45.566;10.238;2023-04-15T05:27:15;3.70;;;1.53;;
79137;SDS011;68544;45.566;10.238;2023-04-15T05:29:40;3.47;;;1.63;;
79137;SDS011;68544;45.566;10.238;2023-04-15T05:32:06;3.10;;;1.50;;
79137;SDS011;68544;45.566;10.238;2023-04-15T05:34:32;3.23;;;1.73;;
79137;SDS011;68544;45.566;10.238;2023-04-15T05:36:57;2.93;;;1.70;;
79137;SDS011;68544;45.566;10.238;2023-04-15T05:39:22;3.33;;;2.00;;
79137;SDS011;68544;45.566;10.238;2023-04-15T05:41:48;3.87;;;1.80;;
79137;SDS011;68544;45.566;10.238;2023-04-15T05:44:13;4.33;;;1.77;;
79137;SDS011;68544;45.566;10.238;2023-04-15T05:46:38;5.67;;;2.00;;
79137;SDS011;68544;45.566;10.238;2023-04-15T05:49:04;6.77;;;1.97;;
79137;SDS011;68544;45.566;10.238;2023-04-15T05:51:29;4.07;;;2.10;;
79137;SDS011;68544;45.566;10.238;2023-04-15T05:53:55;3.63;;;1.50;;
79137;SDS011;68544;45.566;10.238;2023-04-15T05:56:20;6.17;;;2.27;;
79137;SDS011;68544;45.566;10.238;2023-04-15T05:58:46;4.33;;;2.20;;
79137;SDS011;68544;45.566;10.238;2023-04-15T06:01:11;2.40;;;1.93;;
79137;SDS011;68544;45.566;10.238;2023-04-15T06:03:36;4.33;;;1.97;;
79137;SDS011;68544;45.566;10.238;2023-04-15T06:06:02;3.72;;;1.98;;
79137;SDS011;68544;45.566;10.238;2023-04-15T06:08:28;3.47;;;1.77;;
79137;SDS011;68544;45.566;10.238;2023-04-15T06:10:53;3.57;;;2.00;;
79137;SDS011;68544;45.566;10.238;2023-04-15T06:13:19;5.10;;;2.20;;
79137;SDS011;68544;45.566;10.238;2023-04-15T06:15:44;5.20;;;2.10;;
79137;SDS011;68544;45.566;10.238;2023-04-15T06:18:10;7.20;;;2.23;;
79137;SDS011;68544;45.566;10.238;2023-04-15T06:20:37;5.60;;;2.17;;
79137;SDS011;68544;45.566;10.238;2023-04-15T06:23:03;3.75;;;1.80;;
79137;SDS011;68544;45.566;10.238;2023-04-15T06:25:31;2.50;;;1.90;;
79137;SDS011;68544;45.566;10.238;2023-04-15T06:27:56;4.83;;;2.03;;
79137;SDS011;68544;45.566;10.238;2023-04-15T06:30:22;3.33;;;2.00;;
79137;SDS011;68544;45.566;10.238;2023-04-15T06:32:47;6.50;;;1.80;;
79137;SDS011;68544;45.566;10.238;2023-04-15T06:35:12;4.97;;;1.90;;
79137;SDS011;68544;45.566;10.238;2023-04-15T06:37:38;3.57;;;2.30;;
79137;SDS011;68544;45.566;10.238;2023-04-15T06:40:03;3.23;;;1.63;;
79137;SDS011;68544;45.566;10.238;2023-04-15T06:42:29;3.13;;;1.52;;
79137;SDS011;68544;45.566;10.238;2023-04-15T06:44:55;3.17;;;1.77;;
79137;SDS011;68544;45.566;10.238;2023-04-15T06:47:20;2.70;;;1.60;;
79137;SDS011;68544;45.566;10.238;2023-04-15T06:49:46;2.30;;;1.60;;
79137;SDS011;68544;45.566;10.238;2023-04-15T06:52:11;3.17;;;2.00;;
79137;SDS011;68544;45.566;10.238;2023-04-15T06:54:37;2.57;;;1.47;;
79137;SDS011;68544;45.566;10.238;2023-04-15T06:57:02;3.13;;;1.93;;
79137;SDS011;68544;45.566;10.238;2023-04-15T06:59:27;2.67;;;1.70;;
79137;SDS011;68544;45.566;10.238;2023-04-15T07:01:53;4.78;;;1.75;;
79137;SDS011;68544;45.566;10.238;2023-04-15T07:04:18;4.60;;;1.50;;
79137;SDS011;68544;45.566;10.238;2023-04-15T07:06:44;2.40;;;1.63;;
79137;SDS011;68544;45.566;10.238;2023-04-15T07:09:10;3.20;;;1.50;;
79137;SDS011;68544;45.566;10.238;2023-04-15T07:11:35;2.60;;;1.75;;
79137;SDS011;68544;45.566;10.238;2023-04-15T07:14:01;2.47;;;1.50;;
79137;SDS011;68544;45.566;10.238;2023-04-15T07:16:26;3.93;;;1.70;;
79137;SDS011;68544;45.566;10.238;2023-04-15T07:18:52;5.60;;;2.00;;
79137;SDS011;68544;45.566;10.238;2023-04-15T07:21:17;4.32;;;1.70;;
79137;SDS011;68544;45.566;10.238;2023-04-15T07:23:43;3.07;;;1.80;;
79137;SDS011;68544;45.566;10.238;2023-04-15T07:26:08;4.57;;;1.70;;
79137;SDS011;68544;45.566;10.238;2023-04-15T07:28:33;3.00;;;1.87;;
79137;SDS011;68544;45.566;10.238;2023-04-15T07:30:59;3.53;;;1.80;;
79137;SDS011;68544;45.566;10.238;2023-04-15T07:33:24;4.75;;;1.48;;
79137;SDS011;68544;45.566;10.238;2023-04-15T07:35:50;5.03;;;1.87;;
79137;SDS011;68544;45.566;10.238;2023-04-15T07:38:15;3.13;;;1.80;;
79137;SDS011;68544;45.566;10.238;2023-04-15T07:40:40;3.47;;;2.10;;
79137;SDS011;68544;45.566;10.238;2023-04-15T07:43:06;3.23;;;1.60;;
79137;SDS011;68544;45.566;10.238;2023-04-15T07:47:58;2.88;;;1.60;;
79137;SDS011;68544;45.566;10.238;2023-04-15T07:50:23;4.03;;;2.03;;
79137;SDS011;68544;45.566;10.238;2023-04-15T07:52:49;4.67;;;2.30;;
79137;SDS011;68544;45.566;10.238;2023-04-15T07:55:15;3.58;;;2.10;;
79137;SDS011;68544;45.566;10.238;2023-04-15T07:57:43;3.17;;;2.17;;
79137;SDS011;68544;45.566;10.238;2023-04-15T08:00:09;4.30;;;2.30;;
79137;SDS011;68544;45.566;10.238;2023-04-15T08:02:35;4.28;;;2.80;;
79137;SDS011;68544;45.566;10.238;2023-04-15T08:05:00;4.47;;;2.77;;
79137;SDS011;68544;45.566;10.238;2023-04-15T08:07:27;4.82;;;2.83;;
79137;SDS011;68544;45.566;10.238;2023-04-15T08:09:52;4.87;;;2.90;;
79137;SDS011;68544;45.566;10.238;2023-04-15T08:12:17;3.63;;;2.53;;
79137;SDS011;68544;45.566;10.238;2023-04-15T08:14:43;3.83;;;2.67;;
79137;SDS011;68544;45.566;10.238;2023-04-15T08:17:08;4.07;;;3.10;;
79137;SDS011;68544;45.566;10.238;2023-04-15T08:19:34;5.07;;;2.90;;
79137;SDS011;68544;45.566;10.238;2023-04-15T08:21:59;4.30;;;2.83;;
79137;SDS011;68544;45.566;10.238;2023-04-15T08:24:25;3.65;;;3.15;;
79137;SDS011;68544;45.566;10.238;2023-04-15T08:29:16;3.83;;;2.90;;
79137;SDS011;68544;45.566;10.238;2023-04-15T08:34:07;4.22;;;3.10;;
79137;SDS011;68544;45.566;10.238;2023-04-15T08:38:58;3.38;;;2.75;;
79137;SDS011;68544;45.566;10.238;2023-04-15T08:41:25;3.78;;;2.70;;
79137;SDS011;68544;45.566;10.238;2023-04-15T08:43:57;4.22;;;2.65;;
79137;SDS011;68544;45.566;10.238;2023-04-15T08:46:28;3.58;;;1.98;;
79137;SDS011;68544;45.566;10.238;2023-04-15T08:48:56;2.55;;;2.10;;
79137;SDS011;68544;45.566;10.238;2023-04-15T08:51:22;3.58;;;2.13;;
79137;SDS011;68544;45.566;10.238;2023-04-15T08:56:14;3.55;;;2.45;;
79137;SDS011;68544;45.566;10.238;2023-04-15T08:58:40;4.95;;;2.67;;
79137;SDS011;68544;45.566;10.238;2023-04-15T09:01:08;3.95;;;2.90;;
79137;SDS011;68544;45.566;10.238;2023-04-15T09:03:33;4.78;;;2.75;;
79137;SDS011;68544;45.566;10.238;2023-04-15T09:05:59;3.75;;;3.00;;
79137;SDS011;68544;45.566;10.238;2023-04-15T09:08:25;5.30;;;2.63;;
79137;SDS011;68544;45.566;10.238;2023-04-15T09:10:50;4.03;;;2.90;;
79137;SDS011;68544;45.566;10.238;2023-04-15T09:13:17;4.68;;;3.10;;
79137;SDS011;68544;45.566;10.238;2023-04-15T09:15:42;4.38;;;3.30;;
79137;SDS011;68544;45.566;10.238;2023-04-15T09:18:08;4.18;;;3.20;;
79137;SDS011;68544;45.566;10.238;2023-04-15T09:20:37;5.95;;;3.53;;
79137;SDS011;68544;45.566;10.238;2023-04-15T09:23:13;3.70;;;2.95;;
79137;SDS011;68544;45.566;10.238;2023-04-15T09:25:40;5.80;;;2.92;;
79137;SDS011;68544;45.566;10.238;2023-04-15T09:28:08;3.53;;;2.97;;
79137;SDS011;68544;45.566;10.238;2023-04-15T09:30:35;4.30;;;3.13;;
79137;SDS011;68544;45.566;10.238;2023-04-15T09:33:01;5.38;;;2.92;;
79137;SDS011;68544;45.566;10.238;2023-04-15T09:35:32;4.85;;;3.47;;
79137;SDS011;68544;45.566;10.238;2023-04-15T09:38:02;4.53;;;2.80;;
79137;SDS011;68544;45.566;10.238;2023-04-15T09:40:32;3.33;;;2.80;;
79137;SDS011;68544;45.566;10.238;2023-04-15T09:42:59;4.78;;;3.20;;
79137;SDS011;68544;45.566;10.238;2023-04-15T09:45:26;5.03;;;3.45;;
79137;SDS011;68544;45.566;10.238;2023-04-15T09:47:52;5.93;;;3.55;;
79137;SDS011;68544;45.566;10.238;2023-04-15T09:50:20;3.40;;;3.10;;
79137;SDS011;68544;45.566;10.238;2023-04-15T09:52:46;4.70;;;3.17;;
79137;SDS011;68544;45.566;10.238;2023-04-15T09:55:12;5.97;;;3.65;;
79137;SDS011;68544;45.566;10.238;2023-04-15T09:57:38;3.72;;;3.28;;
79137;SDS011;68544;45.566;10.238;2023-04-15T10:00:05;4.82;;;3.38;;
79137;SDS011;68544;45.566;10.238;2023-04-15T10:02:33;3.63;;;2.88;;
79137;SDS011;68544;45.566;10.238;2023-04-15T10:05:00;3.58;;;3.25;;
79137;SDS011;68544;45.566;10.238;2023-04-15T10:07:26;5.78;;;3.50;;
79137;SDS011;68544;45.566;10.238;2023-04-15T10:09:51;3.67;;;3.35;;
79137;SDS011;68544;45.566;10.238;2023-04-15T10:12:17;4.72;;;3.50;;
79137;SDS011;68544;45.566;10.238;2023-04-15T10:14:43;4.68;;;3.58;;
79137;SDS011;68544;45.566;10.238;2023-04-15T10:17:11;3.72;;;3.28;;
79137;SDS011;68544;45.566;10.238;2023-04-15T10:19:37;5.20;;;3.45;;
79137;SDS011;68544;45.566;10.238;2023-04-15T10:22:03;4.30;;;3.80;;
79137;SDS011;68544;45.566;10.238;2023-04-15T10:24:32;4.03;;;3.30;;
79137;SDS011;68544;45.566;10.238;2023-04-15T10:26:58;4.32;;;3.42;;
79137;SDS011;68544;45.566;10.238;2023-04-15T10:29:24;4.40;;;3.63;;
79137;SDS011;68544;45.566;10.238;2023-04-15T10:31:53;4.13;;;3.70;;
79137;SDS011;68544;45.566;10.238;2023-04-15T10:34:20;4.55;;;3.78;;
79137;SDS011;68544;45.566;10.238;2023-04-15T10:36:47;4.20;;;3.80;;
79137;SDS011;68544;45.566;10.238;2023-04-15T10:39:55;4.32;;;3.75;;
79137;SDS011;68544;45.566;10.238;2023-04-15T10:42:06;7.43;;;3.80;;
79137;SDS011;68544;45.566;10.238;2023-04-15T10:44:43;4.25;;;3.85;;
79137;SDS011;68544;45.566;10.238;2023-04-15T10:47:13;5.10;;;3.58;;
79137;SDS011;68544;45.566;10.238;2023-04-15T10:50:01;4.32;;;3.00;;
79137;SDS011;68544;45.566;10.238;2023-04-15T10:52:27;5.82;;;3.72;;
79137;SDS011;68544;45.566;10.238;2023-04-15T10:55:03;4.28;;;3.70;;
79137;SDS011;68544;45.566;10.238;2023-04-15T10:57:40;4.75;;;3.75;;
79137;SDS011;68544;45.566;10.238;2023-04-15T11:02:43;3.90;;;3.60;;
79137;SDS011;68544;45.566;10.238;2023-04-15T11:05:11;5.38;;;3.70;;
79137;SDS011;68544;45.566;10.238;2023-04-15T11:12:42;4.22;;;3.60;;
79137;SDS011;68544;45.566;10.238;2023-04-15T11:17:58;4.90;;;3.78;;
79137;SDS011;68544;45.566;10.238;2023-04-15T11:20:33;4.32;;;3.67;;
79137;SDS011;68544;45.566;10.238;2023-04-15T11:22:58;4.25;;;3.25;;
79137;SDS011;68544;45.566;10.238;2023-04-15T11:25:24;4.63;;;3.30;;
79137;SDS011;68544;45.566;10.238;2023-04-15T11:27:53;4.20;;;3.28;;
79137;SDS011;68544;45.566;10.238;2023-04-15T11:30:20;2.80;;;2.60;;
79137;SDS011;68544;45.566;10.238;2023-04-15T11:32:53;5.47;;;3.20;;
79137;SDS011;68544;45.566;10.238;2023-04-15T11:35:21;4.80;;;3.17;;
79137;SDS011;68544;45.566;10.238;2023-04-15T11:37:47;5.20;;;3.17;;
79137;SDS011;68544;45.566;10.238;2023-04-15T11:40:14;4.68;;;3.45;;
79137;SDS011;68544;45.566;10.238;2023-04-15T11:42:41;3.65;;;3.10;;
79137;SDS011;68544;45.566;10.238;2023-04-15T11:45:08;6.40;;;3.42;;
79137;SDS011;68544;45.566;10.238;2023-04-15T11:47:35;4.95;;;3.30;;
79137;SDS011;68544;45.566;10.238;2023-04-15T11:52:55;5.13;;;3.63;;
79137;SDS011;68544;45.566;10.238;2023-04-15T11:55:22;3.75;;;3.10;;
79137;SDS011;68544;45.566;10.238;2023-04-15T11:58:10;6.70;;;3.35;;
79137;SDS011;68544;45.566;10.238;2023-04-15T12:00:35;4.05;;;3.53;;
79137;SDS011;68544;45.566;10.238;2023-04-15T12:03:11;4.80;;;3.90;;
79137;SDS011;68544;45.566;10.238;2023-04-15T12:13:52;4.30;;;3.90;;
79137;SDS011;68544;45.566;10.238;2023-04-15T12:16:19;6.10;;;4.25;;
79137;SDS011;68544;45.566;10.238;2023-04-15T12:18:46;5.22;;;4.72;;
79137;SDS011;68544;45.566;10.238;2023-04-15T12:21:14;5.40;;;4.18;;
79137;SDS011;68544;45.566;10.238;2023-04-15T12:23:50;5.38;;;3.90;;
79137;SDS011;68544;45.566;10.238;2023-04-15T12:26:26;4.80;;;3.78;;
79137;SDS011;68544;45.566;10.238;2023-04-15T12:28:54;5.40;;;4.10;;
79137;SDS011;68544;45.566;10.238;2023-04-15T12:31:29;4.97;;;4.28;;
79137;SDS011;68544;45.566;10.238;2023-04-15T12:33:55;4.68;;;3.95;;
79137;SDS011;68544;45.566;10.238;2023-04-15T12:36:21;5.65;;;3.60;;
79137;SDS011;68544;45.566;10.238;2023-04-15T12:38:46;4.90;;;3.97;;
79137;SDS011;68544;45.566;10.238;2023-04-15T12:41:12;3.50;;;3.20;;
79137;SDS011;68544;45.566;10.238;2023-04-15T12:43:37;3.92;;;3.53;;
79137;SDS011;68544;45.566;10.238;2023-04-15T12:46:02;4.55;;;3.88;;
79137;SDS011;68544;45.566;10.238;2023-04-15T12:50:54;4.50;;;3.80;;
79137;SDS011;68544;45.566;10.238;2023-04-15T12:53:19;4.93;;;4.43;;
79137;SDS011;68544;45.566;10.238;2023-04-15T12:55:44;7.45;;;4.32;;
79137;SDS011;68544;45.566;10.238;2023-04-15T13:00:35;4.85;;;4.28;;
79137;SDS011;68544;45.566;10.238;2023-04-15T13:03:01;4.60;;;4.05;;
79137;SDS011;68544;45.566;10.238;2023-04-15T13:07:52;6.22;;;4.88;;
79137;SDS011;68544;45.566;10.238;2023-04-15T13:12:43;4.65;;;4.22;;
79137;SDS011;68544;45.566;10.238;2023-04-15T13:15:11;5.85;;;4.70;;
79137;SDS011;68544;45.566;10.238;2023-04-15T13:17:37;4.78;;;4.38;;
79137;SDS011;68544;45.566;10.238;2023-04-15T13:22:27;4.80;;;4.40;;
79137;SDS011;68544;45.566;10.238;2023-04-15T13:27:18;5.37;;;4.10;;
79137;SDS011;68544;45.566;10.238;2023-04-15T13:32:08;4.30;;;3.70;;
79137;SDS011;68544;45.566;10.238;2023-04-15T13:37:04;5.35;;;4.85;;
79137;SDS011;68544;45.566;10.238;2023-04-15T13:39:30;6.13;;;5.03;;
79137;SDS011;68544;45.566;10.238;2023-04-15T13:44:21;5.03;;;4.50;;
79137;SDS011;68544;45.566;10.238;2023-04-15T13:49:11;5.67;;;5.17;;
79137;SDS011;68544;45.566;10.238;2023-04-15T13:51:37;5.50;;;5.00;;
79137;SDS011;68544;45.566;10.238;2023-04-15T13:54:02;5.23;;;4.57;;
79137;SDS011;68544;45.566;10.238;2023-04-15T13:56:28;5.55;;;4.85;;
79137;SDS011;68544;45.566;10.238;2023-04-15T14:01:22;4.55;;;4.05;;
79137;SDS011;68544;45.566;10.238;2023-04-15T14:03:48;4.40;;;3.90;;
79137;SDS011;68544;45.566;10.238;2023-04-15T14:06:13;4.93;;;4.43;;
79137;SDS011;68544;45.566;10.238;2023-04-15T14:08:39;4.93;;;4.50;;
79137;SDS011;68544;45.566;10.238;2023-04-15T14:11:05;4.72;;;4.18;;
79137;SDS011;68544;45.566;10.238;2023-04-15T14:13:30;5.28;;;4.32;;
79137;SDS011;68544;45.566;10.238;2023-04-15T14:15:55;4.55;;;3.90;;
79137;SDS011;68544;45.566;10.238;2023-04-15T14:20:46;5.15;;;4.47;;
79137;SDS011;68544;45.566;10.238;2023-04-15T14:23:11;5.15;;;3.92;;
79137;SDS011;68544;45.566;10.238;2023-04-15T14:25:37;4.53;;;4.00;;
79137;SDS011;68544;45.566;10.238;2023-04-15T14:28:05;4.95;;;4.18;;
79137;SDS011;68544;45.566;10.238;2023-04-15T14:30:31;5.07;;;4.25;;
79137;SDS011;68544;45.566;10.238;2023-04-15T14:32:56;5.15;;;4.65;;
79137;SDS011;68544;45.566;10.238;2023-04-15T14:35:21;6.53;;;4.57;;
79137;SDS011;68544;45.566;10.238;2023-04-15T14:37:49;4.13;;;3.72;;
79137;SDS011;68544;45.566;10.238;2023-04-15T14:40:14;5.32;;;4.07;;
79137;SDS011;68544;45.566;10.238;2023-04-15T14:42:40;4.53;;;3.88;;
79137;SDS011;68544;45.566;10.238;2023-04-15T14:45:05;4.68;;;3.65;;
79137;SDS011;68544;45.566;10.238;2023-04-15T14:47:31;4.05;;;3.63;;
79137;SDS011;68544;45.566;10.238;2023-04-15T14:49:56;6.10;;;3.83;;
79137;SDS011;68544;45.566;10.238;2023-04-15T14:52:22;6.63;;;4.20;;
79137;SDS011;68544;45.566;10.238;2023-04-15T14:54:47;4.57;;;4.10;;
79137;SDS011;68544;45.566;10.238;2023-04-15T14:57:12;5.35;;;4.10;;
79137;SDS011;68544;45.566;10.238;2023-04-15T14:59:38;5.40;;;3.85;;
79137;SDS011;68544;45.566;10.238;2023-04-15T15:02:03;6.78;;;4.55;;
79137;SDS011;68544;45.566;10.238;2023-04-15T15:04:28;5.65;;;4.03;;
79137;SDS011;68544;45.566;10.238;2023-04-15T15:06:54;4.55;;;4.10;;
79137;SDS011;68544;45.566;10.238;2023-04-15T15:09:19;5.60;;;3.70;;
79137;SDS011;68544;45.566;10.238;2023-04-15T15:11:47;4.72;;;3.92;;
79137;SDS011;68544;45.566;10.238;2023-04-15T15:16:41;5.15;;;3.97;;
79137;SDS011;68544;45.566;10.238;2023-04-15T15:19:06;5.65;;;4.00;;
79137;SDS011;68544;45.566;10.238;2023-04-15T15:21:31;5.60;;;4.10;;
79137;SDS011;68544;45.566;10.238;2023-04-15T15:23:57;5.50;;;3.90;;
79137;SDS011;68544;45.566;10.238;2023-04-15T15:26:22;5.05;;;3.97;;
79137;SDS011;68544;45.566;10.238;2023-04-15T15:28:48;4.70;;;3.42;;
79137;SDS011;68544;45.566;10.238;2023-04-15T15:31:14;4.72;;;4.10;;
79137;SDS011;68544;45.566;10.238;2023-04-15T15:33:40;5.85;;;4.22;;
79137;SDS011;68544;45.566;10.238;2023-04-15T15:36:05;7.77;;;4.77;;
79137;SDS011;68544;45.566;10.238;2023-04-15T15:38:31;9.93;;;5.07;;
79137;SDS011;68544;45.566;10.238;2023-04-15T15:40:56;5.70;;;4.37;;